sensor_id;sensor_type;location;lat;lon;timestamp;pressure;altitude;pressure_sealevel;temperature;humidity
69173;BME280;56280;49.662;8.408;2023-06-22T00:00:19;100623.06;;;25.40;62.54
69173;BME280;56280;49.662;8.408;2023-06-22T00:02:44;100673.88;;;25.71;62.40
69173;BME280;56280;49.662;8.408;2023-06-22T00:05:10;100689.78;;;25.74;62.15
69173;BME280;56280;49.662;8.408;2023-06-22T00:07:35;100684.78;;;25.71;62.13
69173;BME280;56280;49.662;8.408;2023-06-22T00:10:00;100700.50;;;25.69;62.24
69173;BME280;56280;49.662;8.408;2023-06-22T00:12:25;100691.78;;;25.60;62.22
69173;BME280;56280;49.662;8.408;2023-06-22T00:14:51;100731.84;;;25.78;62.34
69173;BME280;56280;49.662;8.408;2023-06-22T00:17:16;100739.53;;;25.50;63.29
69173;BME280;56280;49.662;8.408;2023-06-22T00:19:41;100747.09;;;25.47;63.74
69173;BME280;56280;49.662;8.408;2023-06-22T00:22:07;100772.03;;;25.38;64.04
69173;BME280;56280;49.662;8.408;2023-06-22T00:27:15;100734.88;;;24.98;64.35
69173;BME280;56280;49.662;8.408;2023-06-22T00:30:03;100787.59;;;24.84;66.27
69173;BME280;56280;49.662;8.408;2023-06-22T00:32:37;100666.22;;;23.64;68.63
69173;BME280;56280;49.662;8.408;2023-06-22T00:35:12;100649.06;;;23.30;71.81
69173;BME280;56280;49.662;8.408;2023-06-22T00:43:36;100716.03;;;23.43;75.72
69173;BME280;56280;49.662;8.408;2023-06-22T00:46:10;100784.22;;;23.40;75.20
69173;BME280;56280;49.662;8.408;2023-06-22T00:48:42;100865.44;;;23.61;75.01
69173;BME280;56280;49.662;8.408;2023-06-22T00:51:14;100859.69;;;23.36;75.28
69173;BME280;56280;49.662;8.408;2023-06-22T00:53:42;100871.19;;;23.45;74.76
69173;BME280;56280;49.662;8.408;2023-06-22T00:56:08;100954.81;;;24.18;74.85
69173;BME280;56280;49.662;8.408;2023-06-22T00:58:35;100901.22;;;24.40;76.97
69173;BME280;56280;49.662;8.408;2023-06-22T01:01:01;100830.56;;;23.58;81.84
69173;BME280;56280;49.662;8.408;2023-06-22T05:09:31;100639.78;;;23.93;84.83
69173;BME280;56280;49.662;8.408;2023-06-22T05:11:58;100635.16;;;24.33;83.27
69173;BME280;56280;49.662;8.408;2023-06-22T05:14:25;100593.56;;;24.39;78.30
69173;BME280;56280;49.662;8.408;2023-06-22T05:16:50;100611.50;;;24.61;78.79
69173;BME280;56280;49.662;8.408;2023-06-22T05:19:17;100615.06;;;24.48;80.22
69173;BME280;56280;49.662;8.408;2023-06-22T05:21:42;100606.75;;;24.23;79.96
69173;BME280;56280;49.662;8.408;2023-06-22T05:24:08;100585.06;;;24.16;81.26
69173;BME280;56280;49.662;8.408;2023-06-22T05:26:34;100600.72;;;24.14;81.16
69173;BME280;56280;49.662;8.408;2023-06-22T05:29:01;100605.94;;;24.02;82.06
69173;BME280;56280;49.662;8.408;2023-06-22T05:31:27;100619.31;;;23.77;83.06
69173;BME280;56280;49.662;8.408;2023-06-22T05:33:54;100596.59;;;23.91;83.09
69173;BME280;56280;49.662;8.408;2023-06-22T05:36:20;100582.59;;;23.94;82.98
69173;BME280;56280;49.662;8.408;2023-06-22T05:38:47;100609.88;;;24.39;80.52
69173;BME280;56280;49.662;8.408;2023-06-22T05:41:12;100603.25;;;24.15;80.51
69173;BME280;56280;49.662;8.408;2023-06-22T05:43:39;100601.56;;;23.74;82.24
69173;BME280;56280;49.662;8.408;2023-06-22T05:46:04;100612.00;;;23.77;82.47
69173;BME280;56280;49.662;8.408;2023-06-22T05:48:30;100599.03;;;24.19;83.54
69173;BME280;56280;49.662;8.408;2023-06-22T05:50:55;100596.97;;;24.08;80.18
69173;BME280;56280;49.662;8.408;2023-06-22T05:53:21;100610.53;;;24.28;81.44
69173;BME280;56280;49.662;8.408;2023-06-22T05:55:46;100607.19;;;24.33;80.76
69173;BME280;56280;49.662;8.408;2023-06-22T05:58:12;100599.84;;;24.40;81.26
69173;BME280;56280;49.662;8.408;2023-06-22T06:00:38;100564.31;;;24.42;79.95
69173;BME280;56280;49.662;8.408;2023-06-22T06:03:03;100607.63;;;24.88;76.31
69173;BME280;56280;49.662;8.408;2023-06-22T06:05:30;100588.94;;;24.47;77.83
69173;BME280;56280;49.662;8.408;2023-06-22T06:07:56;100603.56;;;24.59;78.37
69173;BME280;56280;49.662;8.408;2023-06-22T06:10:21;100586.59;;;24.70;79.01
69173;BME280;56280;49.662;8.408;2023-06-22T06:12:46;100553.84;;;24.52;77.56
69173;BME280;56280;49.662;8.408;2023-06-22T06:15:12;100608.66;;;24.87;77.70
69173;BME280;56280;49.662;8.408;2023-06-22T06:17:48;100589.81;;;24.99;77.42
69173;BME280;56280;49.662;8.408;2023-06-22T06:20:14;100599.69;;;25.32;77.59
69173;BME280;56280;49.662;8.408;2023-06-22T06:22:39;100591.41;;;25.14;75.37
69173;BME280;56280;49.662;8.408;2023-06-22T06:25:05;100612.31;;;25.52;74.46
69173;BME280;56280;49.662;8.408;2023-06-22T06:27:30;100609.38;;;25.78;73.14
69173;BME280;56280;49.662;8.408;2023-06-22T06:29:56;100592.53;;;25.63;73.46
69173;BME280;56280;49.662;8.408;2023-06-22T06:32:21;100601.00;;;25.16;74.45
69173;BME280;56280;49.662;8.408;2023-06-22T06:34:46;100594.16;;;25.45;74.17
69173;BME280;56280;49.662;8.408;2023-06-22T06:37:12;100578.06;;;25.69;72.95
69173;BME280;56280;49.662;8.408;2023-06-22T06:39:37;100578.31;;;25.36;72.85
69173;BME280;56280;49.662;8.408;2023-06-22T06:42:03;100581.50;;;25.33;73.36
69173;BME280;56280;49.662;8.408;2023-06-22T06:44:29;100599.56;;;25.52;73.12
69173;BME280;56280;49.662;8.408;2023-06-22T06:46:54;100580.97;;;25.49;71.70
69173;BME280;56280;49.662;8.408;2023-06-22T06:49:19;100578.28;;;25.42;71.55
69173;BME280;56280;49.662;8.408;2023-06-22T06:51:44;100587.16;;;25.24;71.90
69173;BME280;56280;49.662;8.408;2023-06-22T06:54:10;100580.97;;;25.49;71.13
69173;BME280;56280;49.662;8.408;2023-06-22T06:56:35;100591.94;;;25.61;70.73
69173;BME280;56280;49.662;8.408;2023-06-22T06:59:00;100576.72;;;25.53;70.86
69173;BME280;56280;49.662;8.408;2023-06-22T07:01:26;100587.09;;;25.70;70.57
69173;BME280;56280;49.662;8.408;2023-06-22T07:03:51;100579.28;;;25.98;70.80
69173;BME280;56280;49.662;8.408;2023-06-22T07:06:16;100577.47;;;25.67;70.59
69173;BME280;56280;49.662;8.408;2023-06-22T07:08:42;100566.50;;;25.48;68.89
69173;BME280;56280;49.662;8.408;2023-06-22T07:11:08;100577.22;;;25.43;71.10
69173;BME280;56280;49.662;8.408;2023-06-22T07:13:33;100590.38;;;25.46;69.90
69173;BME280;56280;49.662;8.408;2023-06-22T07:15:58;100590.41;;;25.72;67.68
69173;BME280;56280;49.662;8.408;2023-06-22T07:18:24;100579.09;;;26.18;68.22
69173;BME280;56280;49.662;8.408;2023-06-22T07:20:49;100563.81;;;26.17;66.15
69173;BME280;56280;49.662;8.408;2023-06-22T07:23:14;100553.22;;;26.09;64.65
69173;BME280;56280;49.662;8.408;2023-06-22T07:25:40;100561.53;;;26.51;65.95
69173;BME280;56280;49.662;8.408;2023-06-22T07:28:07;100576.19;;;27.36;64.85
69173;BME280;56280;49.662;8.408;2023-06-22T07:30:33;100567.00;;;27.31;64.46
69173;BME280;56280;49.662;8.408;2023-06-22T07:32:59;100563.53;;;26.81;67.20
69173;BME280;56280;49.662;8.408;2023-06-22T07:35:30;100566.81;;;27.02;65.83
69173;BME280;56280;49.662;8.408;2023-06-22T07:37:55;100572.16;;;27.39;62.29
69173;BME280;56280;49.662;8.408;2023-06-22T07:40:23;100560.16;;;27.40;62.15
69173;BME280;56280;49.662;8.408;2023-06-22T07:42:48;100561.72;;;27.36;62.73
69173;BME280;56280;49.662;8.408;2023-06-22T07:45:17;100566.50;;;27.22;62.21
69173;BME280;56280;49.662;8.408;2023-06-22T07:47:42;100563.81;;;27.34;61.68
69173;BME280;56280;49.662;8.408;2023-06-22T07:50:08;100524.13;;;27.50;59.19
69173;BME280;56280;49.662;8.408;2023-06-22T07:52:33;100536.03;;;27.79;58.40
69173;BME280;56280;49.662;8.408;2023-06-22T07:54:58;100572.81;;;28.12;57.66
69173;BME280;56280;49.662;8.408;2023-06-22T07:57:24;100577.56;;;28.05;59.10
69173;BME280;56280;49.662;8.408;2023-06-22T08:00:00;100572.38;;;28.03;58.94
69173;BME280;56280;49.662;8.408;2023-06-22T08:02:26;100572.56;;;28.25;56.61
69173;BME280;56280;49.662;8.408;2023-06-22T08:04:54;100558.31;;;28.23;56.83
69173;BME280;56280;49.662;8.408;2023-06-22T08:07:19;100544.16;;;28.38;56.85
69173;BME280;56280;49.662;8.408;2023-06-22T08:09:48;100523.16;;;28.38;57.16
69173;BME280;56280;49.662;8.408;2023-06-22T08:12:14;100528.91;;;28.01;57.90
69173;BME280;56280;49.662;8.408;2023-06-22T08:14:42;100552.25;;;28.33;57.91
69173;BME280;56280;49.662;8.408;2023-06-22T08:17:08;100536.94;;;28.20;57.00
69173;BME280;56280;49.662;8.408;2023-06-22T08:19:33;100529.09;;;28.35;57.49
69173;BME280;56280;49.662;8.408;2023-06-22T08:21:58;100531.34;;;28.38;56.72
69173;BME280;56280;49.662;8.408;2023-06-22T08:24:24;100513.47;;;28.60;56.52
69173;BME280;56280;49.662;8.408;2023-06-22T08:26:51;100493.25;;;28.61;55.98
69173;BME280;56280;49.662;8.408;2023-06-22T08:29:22;100531.19;;;28.57;55.51
69173;BME280;56280;49.662;8.408;2023-06-22T08:31:48;100488.81;;;28.71;55.60
69173;BME280;56280;49.662;8.408;2023-06-22T08:34:13;100515.44;;;28.93;55.79
69173;BME280;56280;49.662;8.408;2023-06-22T08:36:39;100537.19;;;29.00;56.02
69173;BME280;56280;49.662;8.408;2023-06-22T08:39:07;100530.38;;;29.31;54.45
69173;BME280;56280;49.662;8.408;2023-06-22T08:41:32;100527.22;;;29.39;54.77
69173;BME280;56280;49.662;8.408;2023-06-22T08:43:57;100509.81;;;29.45;53.73
69173;BME280;56280;49.662;8.408;2023-06-22T08:46:23;100511.53;;;29.18;54.44
69173;BME280;56280;49.662;8.408;2023-06-22T08:48:55;100526.31;;;29.34;53.59
69173;BME280;56280;49.662;8.408;2023-06-22T08:51:21;100521.53;;;29.12;53.93
69173;BME280;56280;49.662;8.408;2023-06-22T08:53:46;100507.13;;;29.68;54.06
69173;BME280;56280;49.662;8.408;2023-06-22T08:56:11;100507.56;;;29.42;55.29
69173;BME280;56280;49.662;8.408;2023-06-22T08:58:37;100520.81;;;29.51;53.72
69173;BME280;56280;49.662;8.408;2023-06-22T09:01:02;100522.47;;;29.18;54.02
69173;BME280;56280;49.662;8.408;2023-06-22T09:03:27;100501.13;;;28.86;53.64
69173;BME280;56280;49.662;8.408;2023-06-22T09:05:53;100484.34;;;28.25;55.06
69173;BME280;56280;49.662;8.408;2023-06-22T09:08:18;100487.19;;;29.04;54.19
69173;BME280;56280;49.662;8.408;2023-06-22T09:10:43;100502.97;;;29.65;52.98
69173;BME280;56280;49.662;8.408;2023-06-22T09:13:08;100487.56;;;29.59;51.74
69173;BME280;56280;49.662;8.408;2023-06-22T09:15:34;100497.28;;;29.84;53.21
69173;BME280;56280;49.662;8.408;2023-06-22T09:17:59;100488.72;;;29.63;50.99
69173;BME280;56280;49.662;8.408;2023-06-22T09:20:25;100491.34;;;29.92;51.88
69173;BME280;56280;49.662;8.408;2023-06-22T09:22:50;100473.28;;;30.13;50.47
69173;BME280;56280;49.662;8.408;2023-06-22T09:25:15;100478.84;;;30.67;48.56
69173;BME280;56280;49.662;8.408;2023-06-22T09:27:41;100452.59;;;31.04;46.62
69173;BME280;56280;49.662;8.408;2023-06-22T09:30:06;100486.34;;;31.37;45.70
69173;BME280;56280;49.662;8.408;2023-06-22T09:32:32;100508.63;;;30.86;47.45
69173;BME280;56280;49.662;8.408;2023-06-22T09:34:57;100481.47;;;31.12;47.77
69173;BME280;56280;49.662;8.408;2023-06-22T09:37:22;100446.03;;;31.48;45.75
69173;BME280;56280;49.662;8.408;2023-06-22T09:39:48;100402.72;;;31.50;44.53
69173;BME280;56280;49.662;8.408;2023-06-22T09:42:13;100404.00;;;31.37;45.96
69173;BME280;56280;49.662;8.408;2023-06-22T09:44:39;100460.53;;;31.38;45.88
69173;BME280;56280;49.662;8.408;2023-06-22T09:47:04;100458.19;;;31.14;46.25
69173;BME280;56280;49.662;8.408;2023-06-22T09:49:30;100438.03;;;31.36;45.37
69173;BME280;56280;49.662;8.408;2023-06-22T09:51:55;100433.97;;;31.06;46.55
69173;BME280;56280;49.662;8.408;2023-06-22T09:54:21;100403.44;;;30.97;45.26
69173;BME280;56280;49.662;8.408;2023-06-22T09:56:46;100437.34;;;31.18;46.76
69173;BME280;56280;49.662;8.408;2023-06-22T09:59:11;100426.66;;;30.89;46.85
69173;BME280;56280;49.662;8.408;2023-06-22T10:01:36;100432.53;;;30.98;47.36
69173;BME280;56280;49.662;8.408;2023-06-22T10:04:02;100420.91;;;31.23;46.32
69173;BME280;56280;49.662;8.408;2023-06-22T10:06:27;100412.63;;;31.13;45.45
69173;BME280;56280;49.662;8.408;2023-06-22T10:08:53;100420.41;;;30.94;48.10
69173;BME280;56280;49.662;8.408;2023-06-22T10:11:18;100383.28;;;31.56;44.81
69173;BME280;56280;49.662;8.408;2023-06-22T10:13:44;100371.66;;;32.07;43.83
69173;BME280;56280;49.662;8.408;2023-06-22T10:16:09;100384.09;;;32.30;43.20
69173;BME280;56280;49.662;8.408;2023-06-22T10:18:34;100365.84;;;31.93;42.95
69173;BME280;56280;49.662;8.408;2023-06-22T10:21:00;100383.59;;;32.59;42.13
69173;BME280;56280;49.662;8.408;2023-06-22T10:23:25;100381.91;;;32.32;43.23
69173;BME280;56280;49.662;8.408;2023-06-22T10:25:51;100375.91;;;32.71;43.06
69173;BME280;56280;49.662;8.408;2023-06-22T10:28:16;100354.19;;;32.49;41.29
69173;BME280;56280;49.662;8.408;2023-06-22T10:30:42;100383.88;;;32.68;40.04
69173;BME280;56280;49.662;8.408;2023-06-22T10:33:08;100367.91;;;32.96;40.65
69173;BME280;56280;49.662;8.408;2023-06-22T10:35:34;100357.72;;;33.06;39.24
69173;BME280;56280;49.662;8.408;2023-06-22T10:37:59;100368.19;;;32.53;40.23
69173;BME280;56280;49.662;8.408;2023-06-22T10:40:25;100353.06;;;32.40;40.84
69173;BME280;56280;49.662;8.408;2023-06-22T10:42:50;100326.38;;;32.20;41.36
69173;BME280;56280;49.662;8.408;2023-06-22T10:45:16;100342.91;;;32.56;40.52
69173;BME280;56280;49.662;8.408;2023-06-22T10:47:41;100335.19;;;32.94;40.45
69173;BME280;56280;49.662;8.408;2023-06-22T10:50:09;100324.00;;;33.61;39.62
69173;BME280;56280;49.662;8.408;2023-06-22T10:52:34;100307.25;;;34.07;39.20
69173;BME280;56280;49.662;8.408;2023-06-22T10:55:00;100322.53;;;33.84;38.39
69173;BME280;56280;49.662;8.408;2023-06-22T10:57:25;100310.47;;;33.65;39.89
69173;BME280;56280;49.662;8.408;2023-06-22T10:59:51;100313.34;;;33.39;39.08
69173;BME280;56280;49.662;8.408;2023-06-22T11:02:16;100308.13;;;33.42;39.12
69173;BME280;56280;49.662;8.408;2023-06-22T11:04:41;100313.59;;;33.53;38.42
69173;BME280;56280;49.662;8.408;2023-06-22T11:07:06;100313.41;;;33.29;39.43
69173;BME280;56280;49.662;8.408;2023-06-22T11:09:32;100296.59;;;33.30;39.06
69173;BME280;56280;49.662;8.408;2023-06-22T11:11:57;100313.97;;;33.20;38.97
69173;BME280;56280;49.662;8.408;2023-06-22T11:14:24;100292.22;;;33.24;38.92
69173;BME280;56280;49.662;8.408;2023-06-22T11:16:49;100301.69;;;33.62;38.14
69173;BME280;56280;49.662;8.408;2023-06-22T11:19:15;100305.81;;;34.15;38.19
69173;BME280;56280;49.662;8.408;2023-06-22T11:21:40;100302.50;;;34.52;37.57
69173;BME280;56280;49.662;8.408;2023-06-22T11:24:06;100296.84;;;34.68;36.06
69173;BME280;56280;49.662;8.408;2023-06-22T11:26:31;100298.50;;;34.98;36.46
69173;BME280;56280;49.662;8.408;2023-06-22T11:28:57;100287.06;;;35.10;36.18
69173;BME280;56280;49.662;8.408;2023-06-22T11:31:22;100290.88;;;35.38;35.68
69173;BME280;56280;49.662;8.408;2023-06-22T11:33:47;100292.03;;;35.56;36.01
69173;BME280;56280;49.662;8.408;2023-06-22T11:36:13;100273.75;;;35.60;35.83
69173;BME280;56280;49.662;8.408;2023-06-22T11:38:39;100278.75;;;35.58;35.55
69173;BME280;56280;49.662;8.408;2023-06-22T11:41:05;100266.75;;;35.68;35.20
69173;BME280;56280;49.662;8.408;2023-06-22T11:43:31;100269.78;;;35.48;35.02
69173;BME280;56280;49.662;8.408;2023-06-22T11:45:56;100261.03;;;35.40;35.17
69173;BME280;56280;49.662;8.408;2023-06-22T11:48:24;100252.09;;;35.49;35.11
69173;BME280;56280;49.662;8.408;2023-06-22T11:50:49;100285.06;;;35.40;34.34
69173;BME280;56280;49.662;8.408;2023-06-22T11:53:15;100245.97;;;35.33;35.27
69173;BME280;56280;49.662;8.408;2023-06-22T11:55:42;100276.56;;;35.36;34.98
69173;BME280;56280;49.662;8.408;2023-06-22T11:58:07;100271.78;;;35.61;35.51
69173;BME280;56280;49.662;8.408;2023-06-22T12:00:33;100279.91;;;35.76;35.53
69173;BME280;56280;49.662;8.408;2023-06-22T12:02:58;100270.22;;;35.74;35.36
69173;BME280;56280;49.662;8.408;2023-06-22T12:05:24;100277.91;;;35.58;35.72
69173;BME280;56280;49.662;8.408;2023-06-22T12:07:50;100269.56;;;35.63;36.41
69173;BME280;56280;49.662;8.408;2023-06-22T12:10:18;100254.94;;;35.63;35.51
69173;BME280;56280;49.662;8.408;2023-06-22T12:12:43;100276.69;;;35.88;36.49
69173;BME280;56280;49.662;8.408;2023-06-22T12:15:09;100256.03;;;35.86;35.94
69173;BME280;56280;49.662;8.408;2023-06-22T12:17:35;100251.66;;;35.99;36.43
69173;BME280;56280;49.662;8.408;2023-06-22T12:20:00;100246.97;;;35.99;35.56
69173;BME280;56280;49.662;8.408;2023-06-22T12:22:27;100256.34;;;36.17;35.48
69173;BME280;56280;49.662;8.408;2023-06-22T12:24:52;100259.41;;;36.35;35.08
69173;BME280;56280;49.662;8.408;2023-06-22T12:27:17;100273.13;;;36.21;34.78
69173;BME280;56280;49.662;8.408;2023-06-22T12:29:45;100249.19;;;35.59;35.24
69173;BME280;56280;49.662;8.408;2023-06-22T12:32:10;100273.53;;;35.76;35.45
69173;BME280;56280;49.662;8.408;2023-06-22T12:34:38;100245.91;;;35.57;35.70
69173;BME280;56280;49.662;8.408;2023-06-22T12:37:04;100273.91;;;35.50;36.92
69173;BME280;56280;49.662;8.408;2023-06-22T12:39:30;100257.97;;;35.61;36.69
69173;BME280;56280;49.662;8.408;2023-06-22T12:41:56;100249.31;;;35.68;35.97
69173;BME280;56280;49.662;8.408;2023-06-22T12:44:21;100280.44;;;35.97;35.31
69173;BME280;56280;49.662;8.408;2023-06-22T12:46:46;100245.66;;;35.72;35.28
69173;BME280;56280;49.662;8.408;2023-06-22T12:49:12;100243.09;;;35.81;35.62
69173;BME280;56280;49.662;8.408;2023-06-22T12:51:40;100273.06;;;36.26;35.53
69173;BME280;56280;49.662;8.408;2023-06-22T12:54:06;100254.97;;;36.33;34.88
69173;BME280;56280;49.662;8.408;2023-06-22T12:56:31;100255.50;;;36.36;34.99
69173;BME280;56280;49.662;8.408;2023-06-22T12:58:57;100278.66;;;36.40;36.00
69173;BME280;56280;49.662;8.408;2023-06-22T13:01:22;100273.97;;;36.54;35.48
69173;BME280;56280;49.662;8.408;2023-06-22T13:03:48;100270.81;;;36.61;35.26
69173;BME280;56280;49.662;8.408;2023-06-22T13:06:13;100256.78;;;36.57;34.46
69173;BME280;56280;49.662;8.408;2023-06-22T13:08:38;100257.91;;;36.56;34.82
69173;BME280;56280;49.662;8.408;2023-06-22T13:11:03;100250.03;;;36.30;34.32
69173;BME280;56280;49.662;8.408;2023-06-22T13:13:29;100255.97;;;36.05;34.94
69173;BME280;56280;49.662;8.408;2023-06-22T13:15:54;100246.19;;;35.93;34.93
69173;BME280;56280;49.662;8.408;2023-06-22T13:18:19;100258.00;;;35.99;35.27
69173;BME280;56280;49.662;8.408;2023-06-22T13:20:45;100233.63;;;35.87;35.79
69173;BME280;56280;49.662;8.408;2023-06-22T13:23:10;100247.63;;;35.72;36.15
69173;BME280;56280;49.662;8.408;2023-06-22T13:25:36;100260.28;;;35.78;34.92
69173;BME280;56280;49.662;8.408;2023-06-22T13:28:01;100262.34;;;35.86;35.39
69173;BME280;56280;49.662;8.408;2023-06-22T13:30:26;100240.22;;;35.67;35.76
69173;BME280;56280;49.662;8.408;2023-06-22T13:32:52;100233.59;;;35.68;35.49
69173;BME280;56280;49.662;8.408;2023-06-22T13:35:17;100233.16;;;35.80;35.85
69173;BME280;56280;49.662;8.408;2023-06-22T13:37:42;100233.28;;;35.70;35.83
69173;BME280;56280;49.662;8.408;2023-06-22T13:40:08;100203.94;;;35.36;36.27
69173;BME280;56280;49.662;8.408;2023-06-22T13:42:33;100226.88;;;35.55;35.60
69173;BME280;56280;49.662;8.408;2023-06-22T13:44:59;100238.28;;;35.49;36.25
69173;BME280;56280;49.662;8.408;2023-06-22T13:47:24;100202.66;;;35.04;37.08
69173;BME280;56280;49.662;8.408;2023-06-22T13:49:49;100205.50;;;34.99;36.86
69173;BME280;56280;49.662;8.408;2023-06-22T13:52:14;100175.97;;;34.99;36.42
69173;BME280;56280;49.662;8.408;2023-06-22T13:54:40;100191.09;;;35.26;36.26
69173;BME280;56280;49.662;8.408;2023-06-22T13:57:05;100174.53;;;35.26;35.82
69173;BME280;56280;49.662;8.408;2023-06-22T13:59:31;100159.69;;;34.98;35.25
69173;BME280;56280;49.662;8.408;2023-06-22T14:01:56;100159.91;;;35.01;35.74
69173;BME280;56280;49.662;8.408;2023-06-22T14:04:22;100165.06;;;35.08;36.56
69173;BME280;56280;49.662;8.408;2023-06-22T14:06:48;100139.31;;;34.94;35.38
69173;BME280;56280;49.662;8.408;2023-06-22T14:09:13;100147.00;;;34.97;35.59
69173;BME280;56280;49.662;8.408;2023-06-22T14:11:38;100141.19;;;34.98;35.62
69173;BME280;56280;49.662;8.408;2023-06-22T14:14:04;100106.88;;;35.04;35.99
69173;BME280;56280;49.662;8.408;2023-06-22T14:16:29;100122.84;;;35.08;35.26
69173;BME280;56280;49.662;8.408;2023-06-22T14:18:54;100107.44;;;34.82;35.84
69173;BME280;56280;49.662;8.408;2023-06-22T14:21:19;100111.72;;;34.94;36.31
69173;BME280;56280;49.662;8.408;2023-06-22T14:23:45;100119.56;;;35.05;35.96
69173;BME280;56280;49.662;8.408;2023-06-22T14:26:14;100117.41;;;35.02;35.77
69173;BME280;56280;49.662;8.408;2023-06-22T14:28:42;100110.41;;;34.67;36.25
69173;BME280;56280;49.662;8.408;2023-06-22T14:31:09;100118.50;;;34.82;36.13
69173;BME280;56280;49.662;8.408;2023-06-22T14:33:34;100143.31;;;34.82;36.04
69173;BME280;56280;49.662;8.408;2023-06-22T14:35:59;100131.28;;;34.73;36.39
69173;BME280;56280;49.662;8.408;2023-06-22T14:38:25;100123.00;;;34.73;36.71
69173;BME280;56280;49.662;8.408;2023-06-22T14:40:50;100129.19;;;34.89;36.94
69173;BME280;56280;49.662;8.408;2023-06-22T14:43:15;100114.47;;;34.75;37.13
69173;BME280;56280;49.662;8.408;2023-06-22T14:45:41;100142.31;;;34.97;37.32
69173;BME280;56280;49.662;8.408;2023-06-22T14:48:06;100122.59;;;34.85;37.13
69173;BME280;56280;49.662;8.408;2023-06-22T14:50:32;100112.47;;;34.99;37.66
69173;BME280;56280;49.662;8.408;2023-06-22T14:52:57;100119.31;;;35.02;37.13
69173;BME280;56280;49.662;8.408;2023-06-22T14:55:22;100122.59;;;34.61;37.26
69173;BME280;56280;49.662;8.408;2023-06-22T14:57:47;100101.84;;;34.44;37.72
69173;BME280;56280;49.662;8.408;2023-06-22T15:00:13;100102.78;;;34.59;37.84
69173;BME280;56280;49.662;8.408;2023-06-22T15:02:38;100098.88;;;34.36;37.76
69173;BME280;56280;49.662;8.408;2023-06-22T15:05:04;100098.53;;;34.42;38.33
69173;BME280;56280;49.662;8.408;2023-06-22T15:07:29;100092.63;;;34.54;37.99
69173;BME280;56280;49.662;8.408;2023-06-22T15:09:55;100084.13;;;34.50;37.72
69173;BME280;56280;49.662;8.408;2023-06-22T15:12:20;100078.06;;;34.48;38.92
69173;BME280;56280;49.662;8.408;2023-06-22T15:14:45;100083.41;;;34.64;39.08
69173;BME280;56280;49.662;8.408;2023-06-22T15:17:10;100078.53;;;34.80;38.01
69173;BME280;56280;49.662;8.408;2023-06-22T15:19:39;100061.78;;;34.71;38.20
69173;BME280;56280;49.662;8.408;2023-06-22T15:22:05;100090.16;;;34.52;38.60
69173;BME280;56280;49.662;8.408;2023-06-22T15:24:31;100083.94;;;34.42;38.63
69173;BME280;56280;49.662;8.408;2023-06-22T15:26:57;100098.22;;;34.49;38.61
69173;BME280;56280;49.662;8.408;2023-06-22T15:29:22;100049.81;;;34.08;39.54
69173;BME280;56280;49.662;8.408;2023-06-22T15:31:47;100092.16;;;34.17;38.68
69173;BME280;56280;49.662;8.408;2023-06-22T15:34:13;100087.25;;;34.14;38.33
69173;BME280;56280;49.662;8.408;2023-06-22T15:36:38;100105.50;;;34.10;37.94
69173;BME280;56280;49.662;8.408;2023-06-22T15:39:04;100108.72;;;33.54;39.27
69173;BME280;56280;49.662;8.408;2023-06-22T15:41:29;100083.19;;;33.43;39.56
69173;BME280;56280;49.662;8.408;2023-06-22T15:43:54;100094.09;;;33.53;39.59
69173;BME280;56280;49.662;8.408;2023-06-22T15:46:20;100093.91;;;33.44;39.42
69173;BME280;56280;49.662;8.408;2023-06-22T15:48:46;100099.47;;;33.39;39.65
69173;BME280;56280;49.662;8.408;2023-06-22T15:51:11;100078.38;;;33.19;40.33
69173;BME280;56280;49.662;8.408;2023-06-22T15:53:37;100073.16;;;33.18;40.46
69173;BME280;56280;49.662;8.408;2023-06-22T15:56:02;100088.31;;;33.10;40.63
69173;BME280;56280;49.662;8.408;2023-06-22T15:58:29;100110.16;;;32.96;41.00
69173;BME280;56280;49.662;8.408;2023-06-22T16:00:54;100089.13;;;32.50;42.05
69173;BME280;56280;49.662;8.408;2023-06-22T16:03:20;100095.47;;;32.51;42.29
69173;BME280;56280;49.662;8.408;2023-06-22T16:05:45;100088.06;;;32.46;42.85
69173;BME280;56280;49.662;8.408;2023-06-22T16:08:16;100104.63;;;32.15;46.04
69173;BME280;56280;49.662;8.408;2023-06-22T16:10:41;100071.69;;;31.54;47.77
69173;BME280;56280;49.662;8.408;2023-06-22T16:13:06;100115.06;;;31.57;47.29
69173;BME280;56280;49.662;8.408;2023-06-22T16:15:32;100107.03;;;31.35;48.02
69173;BME280;56280;49.662;8.408;2023-06-22T16:18:00;100106.75;;;31.26;47.55
69173;BME280;56280;49.662;8.408;2023-06-22T16:20:25;100086.16;;;31.08;47.37
69173;BME280;56280;49.662;8.408;2023-06-22T16:22:51;100090.56;;;31.19;47.15
69173;BME280;56280;49.662;8.408;2023-06-22T16:25:21;100052.13;;;31.04;47.24
69173;BME280;56280;49.662;8.408;2023-06-22T16:27:50;100057.91;;;31.18;46.75
69173;BME280;56280;49.662;8.408;2023-06-22T16:30:20;100091.16;;;31.52;46.02
69173;BME280;56280;49.662;8.408;2023-06-22T16:32:53;100046.66;;;31.35;46.22
69173;BME280;56280;49.662;8.408;2023-06-22T16:35:25;100076.06;;;31.60;45.52
69173;BME280;56280;49.662;8.408;2023-06-22T16:37:55;100104.63;;;31.79;44.92
69173;BME280;56280;49.662;8.408;2023-06-22T16:40:25;100117.28;;;31.80;45.14
69173;BME280;56280;49.662;8.408;2023-06-22T16:42:53;100220.81;;;31.90;45.77
69173;BME280;56280;49.662;8.408;2023-06-22T16:45:20;100187.31;;;30.99;46.40
69173;BME280;56280;49.662;8.408;2023-06-22T16:47:46;100219.75;;;29.73;54.24
69173;BME280;56280;49.662;8.408;2023-06-22T16:50:12;100225.50;;;28.32;62.68
69173;BME280;56280;49.662;8.408;2023-06-22T16:52:38;100198.81;;;27.71;65.41
69173;BME280;56280;49.662;8.408;2023-06-22T16:55:06;100196.09;;;27.71;64.14
69173;BME280;56280;49.662;8.408;2023-06-22T16:57:32;100201.88;;;27.75;65.19